createdAt,value
2018-12-13T00:00:24.088Z,17.40
2018-12-13T00:02:54.842Z,18.10
2018-12-13T00:05:25.758Z,17.07
2018-12-13T00:07:54.772Z,16.47
2018-12-13T00:10:23.563Z,17.40
2018-12-13T00:12:54.502Z,17.50
2018-12-13T00:15:26.439Z,16.97
2018-12-13T00:17:55.227Z,19.33
2018-12-13T00:20:24.059Z,17.00
2018-12-13T00:22:52.913Z,17.70
2018-12-13T00:25:22.010Z,18.60
2018-12-13T00:27:50.888Z,18.73
2018-12-13T00:30:19.750Z,16.40
2018-12-13T00:32:48.556Z,17.13
2018-12-13T00:35:17.507Z,18.40
2018-12-13T00:37:46.284Z,19.07
2018-12-13T00:40:15.183Z,16.13
2018-12-13T00:42:43.960Z,16.50
2018-12-13T00:45:12.952Z,17.07
2018-12-13T00:47:41.734Z,18.00
2018-12-13T00:50:10.926Z,20.73
2018-12-13T00:52:39.769Z,18.67
2018-12-13T00:55:08.664Z,15.85
2018-12-13T00:57:37.468Z,18.10
2018-12-13T01:00:07.874Z,17.37
2018-12-13T01:02:36.958Z,19.27
2018-12-13T01:05:05.964Z,16.83
2018-12-13T01:07:35.010Z,19.20
2018-12-13T01:10:04.414Z,17.00
2018-12-13T01:12:34.250Z,17.67
2018-12-13T01:15:03.222Z,15.83
2018-12-13T01:17:33.804Z,17.43
2018-12-13T01:20:05.840Z,20.53
2018-12-13T01:22:34.693Z,16.30
2018-12-13T01:25:03.623Z,19.27
2018-12-13T01:27:32.412Z,16.93
2018-12-13T01:30:01.415Z,15.80
2018-12-13T01:32:30.348Z,17.63
2018-12-13T01:34:59.070Z,16.63
2018-12-13T01:37:27.790Z,18.40
2018-12-13T01:39:56.616Z,16.93
2018-12-13T01:42:25.435Z,15.27
2018-12-13T01:44:54.171Z,16.53
2018-12-13T01:47:22.906Z,16.40
2018-12-13T01:49:51.932Z,16.53
2018-12-13T01:52:20.664Z,15.60
2018-12-13T01:54:49.393Z,14.83
2018-12-13T01:57:18.168Z,16.53
2018-12-13T01:59:46.986Z,14.63
2018-12-13T02:02:15.726Z,15.47
2018-12-13T02:04:44.687Z,14.93
2018-12-13T02:07:13.522Z,15.83
2018-12-13T02:09:42.512Z,15.10
2018-12-13T02:12:11.762Z,15.30
2018-12-13T02:14:40.535Z,13.83
2018-12-13T02:17:11.467Z,15.60
2018-12-13T02:19:40.286Z,14.50
2018-12-13T02:22:09.315Z,14.47
2018-12-13T02:24:38.742Z,15.37
2018-12-13T02:27:07.596Z,15.23
2018-12-13T02:29:36.432Z,14.80
2018-12-13T02:32:05.521Z,14.53
2018-12-13T02:34:34.356Z,13.53
2018-12-13T02:37:06.181Z,14.37
2018-12-13T02:39:34.147Z,16.77
2018-12-13T02:42:02.955Z,15.60
2018-12-13T02:44:31.671Z,15.43
2018-12-13T02:47:00.400Z,14.60
2018-12-13T02:49:29.550Z,14.60
2018-12-13T02:51:58.431Z,14.60
2018-12-13T02:54:27.171Z,16.20
2018-12-13T02:56:55.939Z,16.00
2018-12-13T02:59:31.402Z,16.03
2018-12-13T03:02:01.031Z,20.33
2018-12-13T03:04:30.940Z,17.37
2018-12-13T03:06:59.935Z,15.83
2018-12-13T03:09:29.019Z,16.13
2018-12-13T03:11:57.832Z,17.80
2018-12-13T03:14:26.545Z,17.33
2018-12-13T03:16:55.678Z,16.67
2018-12-13T03:21:58.562Z,19.40
2018-12-13T03:24:27.450Z,18.97
2018-12-13T03:26:56.344Z,20.87
2018-12-13T03:29:25.096Z,19.77
2018-12-13T03:31:54.449Z,17.83
2018-12-13T03:34:23.245Z,18.57
2018-12-13T03:36:52.035Z,20.20
2018-12-13T03:39:21.092Z,21.50
2018-12-13T03:41:50.055Z,19.20
2018-12-13T03:44:18.847Z,19.47
2018-12-13T03:46:47.796Z,18.83
2018-12-13T03:49:16.732Z,18.57
2018-12-13T03:51:45.451Z,19.17
2018-12-13T03:54:14.335Z,18.20
2018-12-13T03:56:43.387Z,18.07
2018-12-13T03:59:12.181Z,18.80
2018-12-13T04:01:41.290Z,19.30
2018-12-13T04:04:10.102Z,20.12
2018-12-13T04:06:38.931Z,17.03
2018-12-13T04:09:07.983Z,17.83
2018-12-13T04:11:36.890Z,16.80
2018-12-13T04:14:05.805Z,17.45
2018-12-13T04:16:34.584Z,17.20
2018-12-13T04:19:03.444Z,16.03
2018-12-13T04:21:32.179Z,15.33
2018-12-13T04:24:01.051Z,15.60
2018-12-13T04:26:29.982Z,16.37
2018-12-13T04:28:58.715Z,18.03
2018-12-13T04:31:27.883Z,15.47
2018-12-13T04:33:56.574Z,16.50
2018-12-13T04:36:25.459Z,13.83
2018-12-13T04:38:54.344Z,16.27
2018-12-13T04:41:23.146Z,15.70
2018-12-13T04:43:51.954Z,15.37
2018-12-13T04:46:20.826Z,13.98
2018-12-13T04:48:49.612Z,14.13
2018-12-13T04:51:18.436Z,13.87
2018-12-13T04:54:05.928Z,13.33
2018-12-13T04:56:34.660Z,14.58
2018-12-13T04:59:04.489Z,12.77
2018-12-13T05:01:33.234Z,14.13
2018-12-13T05:04:03.213Z,14.07
2018-12-13T05:06:31.943Z,14.27
2018-12-13T05:09:01.835Z,13.40
2018-12-13T05:11:32.500Z,12.33
2018-12-13T05:14:01.418Z,13.67
2018-12-13T05:16:30.225Z,13.00
2018-12-13T05:18:59.086Z,12.33
2018-12-13T05:21:28.179Z,12.27
2018-12-13T05:23:57.096Z,13.00
2018-12-13T05:26:25.897Z,13.00
2018-12-13T05:28:54.631Z,13.23
2018-12-13T05:31:23.512Z,13.27
2018-12-13T05:33:52.335Z,12.50
2018-12-13T05:36:22.126Z,12.20
2018-12-13T05:38:51.154Z,11.20
2018-12-13T05:41:20.141Z,10.17
2018-12-13T05:43:53.072Z,11.50
2018-12-13T05:46:22.404Z,12.07
2018-12-13T05:48:51.303Z,12.63
2018-12-13T05:51:20.110Z,10.90
2018-12-13T05:53:49.070Z,12.27
2018-12-13T05:56:17.891Z,11.40
2018-12-13T05:58:46.684Z,10.82
2018-12-13T06:01:15.477Z,12.03
2018-12-13T06:03:44.416Z,10.97
2018-12-13T06:06:13.616Z,13.53
2018-12-13T06:08:42.337Z,12.27
2018-12-13T06:11:11.132Z,13.08
2018-12-13T06:13:39.987Z,12.00
2018-12-13T06:16:09.139Z,12.40
2018-12-13T06:18:37.968Z,12.15
2018-12-13T06:21:11.854Z,11.30
2018-12-13T06:23:37.740Z,12.83
2018-12-13T06:26:06.479Z,13.23
2018-12-13T06:28:35.278Z,12.40
2018-12-13T06:31:04.907Z,12.95
2018-12-13T06:33:33.649Z,11.87
2018-12-13T06:36:02.461Z,12.70
2018-12-13T06:38:31.255Z,13.63
2018-12-13T06:41:00.005Z,13.50
2018-12-13T06:43:28.722Z,14.07
2018-12-13T06:45:57.524Z,13.03
2018-12-13T06:48:26.307Z,12.43
2018-12-13T06:50:55.186Z,12.73
2018-12-13T06:53:23.991Z,13.77
2018-12-13T06:55:52.878Z,12.83
2018-12-13T06:58:21.685Z,13.95
2018-12-13T07:00:50.502Z,13.23
2018-12-13T07:03:19.527Z,14.03
2018-12-13T07:05:48.258Z,13.70
2018-12-13T07:08:17.203Z,13.63
2018-12-13T07:10:46.119Z,13.63
2018-12-13T07:13:15.119Z,13.95
2018-12-13T07:15:43.843Z,14.10
2018-12-13T07:18:12.643Z,15.30
2018-12-13T07:20:41.375Z,16.70
2018-12-13T07:23:10.143Z,16.67
2018-12-13T07:25:38.917Z,17.10
2018-12-13T07:28:07.769Z,16.23
2018-12-13T07:30:36.595Z,17.83
2018-12-13T07:33:05.732Z,17.50
2018-12-13T07:35:34.530Z,16.93
2018-12-13T07:38:03.728Z,17.40
2018-12-13T07:40:32.495Z,16.20
2018-12-13T07:43:01.788Z,17.37
2018-12-13T07:45:30.665Z,18.37
2018-12-13T07:47:59.840Z,18.07
2018-12-13T07:50:28.787Z,20.27
2018-12-13T07:52:57.580Z,17.23
2018-12-13T07:55:26.515Z,18.20
2018-12-13T07:57:55.242Z,18.83
2018-12-13T08:00:24.088Z,17.92
2018-12-13T08:02:52.948Z,18.77
2018-12-13T08:05:21.720Z,17.43
2018-12-13T08:07:50.679Z,17.50
2018-12-13T08:10:19.492Z,17.57
2018-12-13T08:12:48.303Z,18.53
2018-12-13T08:15:17.457Z,18.03
2018-12-13T08:17:46.682Z,18.93
2018-12-13T08:20:18.473Z,19.32
2018-12-13T08:22:47.324Z,20.70
2018-12-13T08:25:16.358Z,19.03
2018-12-13T08:27:45.248Z,19.63
2018-12-13T08:30:14.071Z,18.53
2018-12-13T08:32:42.928Z,17.97
2018-12-13T08:35:11.850Z,18.90
2018-12-13T08:37:40.788Z,18.80
2018-12-13T08:40:09.657Z,21.80
2018-12-13T08:42:38.519Z,18.50
2018-12-13T08:45:07.519Z,20.13
2018-12-13T08:47:36.347Z,20.47
2018-12-13T08:50:05.504Z,18.40
2018-12-13T08:52:34.995Z,20.73
2018-12-13T08:55:05.025Z,20.05
2018-12-13T08:57:34.947Z,22.00
2018-12-13T09:00:07.019Z,20.60
2018-12-13T09:02:37.389Z,19.43
2018-12-13T09:05:07.078Z,20.33
2018-12-13T09:07:36.010Z,18.77
2018-12-13T09:10:05.411Z,22.33
2018-12-13T09:12:34.264Z,20.87
2018-12-13T09:15:03.142Z,20.48
2018-12-13T09:17:31.990Z,21.33
2018-12-13T09:20:00.915Z,20.67
2018-12-13T09:22:31.378Z,21.50
2018-12-13T09:25:00.126Z,23.13
2018-12-13T09:27:28.922Z,20.97
2018-12-13T09:29:57.697Z,24.37
2018-12-13T09:32:26.424Z,20.93
2018-12-13T09:34:55.416Z,22.23
2018-12-13T09:37:24.413Z,20.17
2018-12-13T09:39:53.129Z,21.90
2018-12-13T09:42:22.170Z,19.90
2018-12-13T09:44:51.395Z,20.60
2018-12-13T09:47:20.429Z,22.85
2018-12-13T09:49:49.373Z,21.07
2018-12-13T09:52:18.169Z,20.40
2018-12-13T09:54:47.050Z,19.70
2018-12-13T09:57:22.423Z,20.07
2018-12-13T09:59:51.172Z,20.27
2018-12-13T10:02:19.898Z,20.43
2018-12-13T10:04:48.668Z,20.53
2018-12-13T10:07:17.476Z,19.43
2018-12-13T10:09:46.242Z,19.07
2018-12-13T10:12:15.133Z,18.50
2018-12-13T10:14:43.889Z,20.37
2018-12-13T10:17:12.685Z,20.47
2018-12-13T10:19:41.400Z,18.70
2018-12-13T10:22:11.885Z,20.08
2018-12-13T10:24:41.162Z,19.62
2018-12-13T10:27:09.982Z,19.73
2018-12-13T10:29:40.954Z,20.93
2018-12-13T10:32:09.991Z,20.93
2018-12-13T10:34:38.923Z,19.73
2018-12-13T10:37:07.665Z,19.20
2018-12-13T10:39:36.452Z,19.17
2018-12-13T10:42:05.302Z,20.23
2018-12-13T10:44:36.182Z,18.73
2018-12-13T10:47:05.540Z,19.07
2018-12-13T10:49:34.763Z,18.40
2018-12-13T10:52:03.644Z,18.53
2018-12-13T10:54:32.466Z,19.07
2018-12-13T10:57:01.263Z,19.43
2018-12-13T10:59:30.197Z,18.90
2018-12-13T11:02:02.331Z,17.47
2018-12-13T11:04:31.163Z,18.70
2018-12-13T11:07:00.234Z,18.20
2018-12-13T11:09:30.083Z,16.73
2018-12-13T11:12:00.747Z,18.57
2018-12-13T11:14:29.617Z,18.43
2018-12-13T11:16:58.344Z,17.27
2018-12-13T11:19:27.211Z,17.60
2018-12-13T11:21:56.199Z,16.43
2018-12-13T11:24:24.920Z,17.87
2018-12-13T11:26:57.046Z,17.23
2018-12-13T11:29:37.052Z,18.23
2018-12-13T11:32:05.905Z,16.43
2018-12-13T11:34:34.627Z,18.00
2018-12-13T11:37:03.416Z,17.37
2018-12-13T11:39:32.370Z,15.90
2018-12-13T11:42:01.107Z,16.37
2018-12-13T11:44:30.031Z,16.37
2018-12-13T11:46:58.747Z,16.85
2018-12-13T11:49:27.794Z,17.40
2018-12-13T11:51:56.771Z,16.77
2018-12-13T11:54:40.169Z,14.77
2018-12-13T11:57:09.191Z,15.23
2018-12-13T11:59:38.046Z,14.23
2018-12-13T12:02:07.282Z,13.93
2018-12-13T12:04:36.006Z,13.73
2018-12-13T12:07:04.938Z,13.27
2018-12-13T12:09:33.867Z,14.00
2018-12-13T12:12:02.737Z,13.97
2018-12-13T12:14:31.827Z,13.30
2018-12-13T12:17:01.567Z,13.47
2018-12-13T12:19:30.744Z,12.97
2018-12-13T12:21:59.655Z,12.93
2018-12-13T12:24:28.419Z,13.90
2018-12-13T12:26:57.183Z,13.40
2018-12-13T12:29:26.031Z,14.03
2018-12-13T12:31:54.834Z,12.07
2018-12-13T12:34:23.786Z,12.83
2018-12-13T12:36:52.624Z,12.77
2018-12-13T12:39:21.367Z,12.47
2018-12-13T12:41:50.110Z,12.57
2018-12-13T12:44:18.854Z,12.20
2018-12-13T12:46:47.891Z,12.97
2018-12-13T12:49:18.555Z,12.82
2018-12-13T12:51:47.563Z,11.90
2018-12-13T12:54:16.336Z,11.63
2018-12-13T12:56:45.103Z,11.67
2018-12-13T12:59:14.013Z,12.30
2018-12-13T13:01:42.795Z,12.63
2018-12-13T13:04:11.683Z,12.10
2018-12-13T13:06:40.662Z,12.30
2018-12-13T13:09:09.515Z,11.35
2018-12-13T13:11:38.729Z,11.70
2018-12-13T13:14:07.608Z,11.43
2018-12-13T13:16:36.400Z,12.23
2018-12-13T13:19:05.342Z,11.67
2018-12-13T13:21:34.261Z,11.43
2018-12-13T13:24:03.047Z,12.67
2018-12-13T13:26:31.758Z,11.90
2018-12-13T13:29:00.691Z,11.53
2018-12-13T13:31:29.624Z,10.00
2018-12-13T13:33:58.342Z,11.80
2018-12-13T13:36:27.131Z,12.50
2018-12-13T13:38:55.967Z,11.38
2018-12-13T13:41:24.855Z,11.47
2018-12-13T13:43:53.706Z,11.63
2018-12-13T13:46:22.619Z,11.95
2018-12-13T13:48:52.606Z,11.30
2018-12-13T13:51:21.351Z,11.13
2018-12-13T13:53:50.093Z,11.50
2018-12-13T13:56:18.823Z,11.38
2018-12-13T13:58:47.671Z,12.00
2018-12-13T14:01:17.503Z,10.50
2018-12-13T14:03:46.350Z,10.50
2018-12-13T14:06:15.142Z,11.00
2018-12-13T14:08:44.251Z,11.20
2018-12-13T14:11:13.258Z,10.82
2018-12-13T14:13:42.078Z,10.53
2018-12-13T14:16:10.873Z,10.43
2018-12-13T14:18:40.370Z,9.20
2018-12-13T14:21:09.283Z,10.35
2018-12-13T14:23:38.126Z,10.10
2018-12-13T14:26:07.423Z,10.07
2018-12-13T14:28:36.198Z,9.03
2018-12-13T14:31:05.115Z,10.80
2018-12-13T14:33:33.918Z,10.93
2018-12-13T14:36:02.859Z,9.57
2018-12-13T14:38:31.666Z,11.47
2018-12-13T14:41:02.342Z,11.30
2018-12-13T14:43:33.309Z,10.40
2018-12-13T14:46:02.198Z,8.60
2018-12-13T14:48:31.115Z,10.70
2018-12-13T14:51:00.106Z,9.30
2018-12-13T14:53:29.194Z,10.82
2018-12-13T14:55:58.199Z,11.23
2018-12-13T14:58:27.100Z,12.20
2018-12-13T15:00:56.078Z,9.80
2018-12-13T15:03:24.855Z,11.47
2018-12-13T15:05:53.627Z,10.05
2018-12-13T15:08:23.285Z,10.50
2018-12-13T15:10:52.115Z,11.43
2018-12-13T15:13:20.921Z,10.53
2018-12-13T15:15:49.795Z,10.53
2018-12-13T15:18:18.754Z,11.85
2018-12-13T15:20:48.134Z,10.80
2018-12-13T15:23:16.869Z,11.20
2018-12-13T15:25:45.707Z,10.80
2018-12-13T15:28:14.879Z,10.43
2018-12-13T15:30:43.701Z,10.30
2018-12-13T15:33:12.770Z,11.63
2018-12-13T15:35:41.491Z,11.27
2018-12-13T15:38:10.231Z,11.12
2018-12-13T15:40:39.058Z,10.53
2018-12-13T15:43:08.148Z,10.00
2018-12-13T15:45:37.222Z,9.87
2018-12-13T15:48:05.966Z,10.03
2018-12-13T15:50:34.723Z,9.20
2018-12-13T15:53:03.524Z,9.63
2018-12-13T15:55:32.609Z,9.70
2018-12-13T15:58:01.367Z,9.70
2018-12-13T16:00:30.150Z,9.67
2018-12-13T16:02:58.994Z,9.27
2018-12-13T16:05:28.116Z,9.57
2018-12-13T16:07:57.149Z,8.80
2018-12-13T16:10:25.930Z,10.03
2018-12-13T16:12:54.797Z,8.63
2018-12-13T16:15:23.696Z,8.70
2018-12-13T16:17:52.504Z,8.30
2018-12-13T16:20:21.234Z,9.47
2018-12-13T16:22:50.058Z,9.23
2018-12-13T16:25:19.190Z,9.33
2018-12-13T16:27:48.046Z,7.53
2018-12-13T16:30:17.162Z,8.63
2018-12-13T16:32:45.963Z,8.67
2018-12-13T16:35:14.778Z,8.10
2018-12-13T16:37:43.715Z,8.40
2018-12-13T16:40:12.586Z,8.57
2018-12-13T16:42:41.339Z,7.77
2018-12-13T16:45:10.130Z,8.65
2018-12-13T16:47:39.683Z,8.70
2018-12-13T16:50:08.589Z,7.53
2018-12-13T16:52:37.724Z,7.93
2018-12-13T16:55:06.795Z,14.67
2018-12-13T16:57:35.794Z,13.57
2018-12-13T17:00:07.020Z,8.98
2018-12-13T17:02:36.175Z,8.97
2018-12-13T17:05:05.307Z,8.70
2018-12-13T17:07:34.128Z,7.90
2018-12-13T17:10:02.919Z,7.57
2018-12-13T17:12:31.895Z,7.30
2018-12-13T17:15:00.794Z,7.70
2018-12-13T17:17:30.430Z,7.70
2018-12-13T17:19:59.331Z,6.77
2018-12-13T17:22:28.115Z,7.20
2018-12-13T17:24:57.082Z,7.57
2018-12-13T17:27:25.946Z,7.73
2018-12-13T17:29:54.814Z,8.33
2018-12-13T17:32:23.598Z,13.20
2018-12-13T17:34:52.322Z,12.40
2018-12-13T17:37:21.073Z,9.43
2018-12-13T17:39:49.973Z,9.47
2018-12-13T17:42:18.772Z,9.05
2018-12-13T17:44:47.524Z,9.40
2018-12-13T17:47:16.942Z,8.30
2018-12-13T17:49:45.843Z,8.80
2018-12-13T17:52:14.652Z,9.63
2018-12-13T17:54:43.411Z,8.20
2018-12-13T17:57:12.195Z,8.47
2018-12-13T17:59:41.051Z,8.20
2018-12-13T18:02:10.054Z,8.53
2018-12-13T18:04:38.860Z,7.67
2018-12-13T18:07:07.745Z,7.80
2018-12-13T18:09:36.541Z,8.90
2018-12-13T18:12:05.423Z,8.90
2018-12-13T18:14:34.210Z,7.63
2018-12-13T18:17:02.999Z,7.57
2018-12-13T18:19:31.931Z,7.33
2018-12-13T18:22:00.640Z,7.30
2018-12-13T18:24:37.840Z,7.40
2018-12-13T18:27:06.961Z,6.87
2018-12-13T18:29:36.195Z,7.60
2018-12-13T18:32:27.247Z,6.63
2018-12-13T18:34:56.130Z,7.23
2018-12-13T18:37:26.140Z,7.80
2018-12-13T18:39:54.868Z,6.80
2018-12-13T18:42:23.801Z,7.30
2018-12-13T18:44:52.754Z,7.27
2018-12-13T18:47:21.811Z,8.23
2018-12-13T18:49:50.718Z,7.20
2018-12-13T18:52:19.848Z,7.67
2018-12-13T18:54:48.692Z,7.50
2018-12-13T18:57:18.985Z,8.73
2018-12-13T18:59:48.822Z,7.90
2018-12-13T19:02:17.811Z,7.85
2018-12-13T19:04:46.801Z,7.13
2018-12-13T19:07:15.890Z,7.50
2018-12-13T19:09:44.931Z,7.90
2018-12-13T19:12:13.775Z,7.33
2018-12-13T19:14:42.846Z,8.45
2018-12-13T19:17:11.834Z,7.80
2018-12-13T19:19:40.772Z,8.27
2018-12-13T19:22:09.807Z,8.73
2018-12-13T19:24:38.824Z,8.83
2018-12-13T19:27:07.735Z,8.17
2018-12-13T19:29:36.802Z,7.93
2018-12-13T19:32:05.841Z,8.60
2018-12-13T19:34:34.948Z,9.05
2018-12-13T19:37:03.842Z,9.27
2018-12-13T19:39:32.659Z,8.77
2018-12-13T19:42:02.070Z,8.50
2018-12-13T19:44:30.978Z,8.70
2018-12-13T19:47:00.063Z,9.33
2018-12-13T19:49:29.048Z,9.57
2018-12-13T19:51:59.194Z,8.75
2018-12-13T19:54:28.009Z,9.13
2018-12-13T19:56:57.175Z,9.50
2018-12-13T19:59:25.890Z,11.13
2018-12-13T20:01:54.711Z,9.47
2018-12-13T20:04:23.526Z,9.47
2018-12-13T20:06:52.611Z,10.43
2018-12-13T20:09:21.367Z,9.57
2018-12-13T20:11:51.830Z,10.70
2018-12-13T20:14:22.683Z,10.97
2018-12-13T20:16:51.565Z,9.63
2018-12-13T20:19:20.565Z,12.65
2018-12-13T20:21:49.576Z,11.57
2018-12-13T20:24:18.543Z,9.98
2018-12-13T20:26:47.543Z,11.10
2018-12-13T20:29:17.209Z,10.70
2018-12-13T20:31:46.838Z,10.23
2018-12-13T20:34:15.820Z,11.30
2018-12-13T20:36:45.047Z,11.07
2018-12-13T20:39:14.189Z,11.40
2018-12-13T20:41:43.814Z,11.00
2018-12-13T20:44:12.656Z,11.63
2018-12-13T20:46:41.935Z,9.90
2018-12-13T20:49:10.955Z,11.90
2018-12-13T20:51:39.927Z,10.47
2018-12-13T20:54:09.012Z,10.87
2018-12-13T20:56:38.548Z,10.60
2018-12-13T20:59:08.139Z,11.57
2018-12-13T21:01:37.898Z,12.50
2018-12-13T21:04:06.807Z,11.73
2018-12-13T21:06:35.745Z,11.63
2018-12-13T21:09:07.203Z,11.80
2018-12-13T21:11:36.852Z,12.13
2018-12-13T21:14:05.847Z,11.97
2018-12-13T21:16:34.752Z,12.37
2018-12-13T21:19:03.872Z,14.10
2018-12-13T21:21:32.745Z,13.07
2018-12-13T21:24:01.470Z,12.73
2018-12-13T21:26:30.587Z,13.53
2018-12-13T21:28:59.414Z,14.17
2018-12-13T21:31:46.950Z,14.30
2018-12-13T21:34:15.908Z,13.37
2018-12-13T21:36:44.882Z,13.57
2018-12-13T21:39:13.812Z,13.32
2018-12-13T21:41:42.538Z,14.87
2018-12-13T21:44:11.562Z,13.70
2018-12-13T21:46:47.127Z,14.07
2018-12-13T21:49:15.848Z,13.10
2018-12-13T21:51:44.717Z,13.87
2018-12-13T21:54:14.480Z,14.00
2018-12-13T21:56:43.785Z,14.03
2018-12-13T21:59:12.902Z,14.03
2018-12-13T22:01:41.667Z,13.30
2018-12-13T22:04:10.529Z,13.65
2018-12-13T22:06:39.575Z,15.90
2018-12-13T22:09:08.718Z,13.57
2018-12-13T22:11:37.486Z,15.40
2018-12-13T22:14:06.383Z,14.93
2018-12-13T22:16:35.104Z,14.27
2018-12-13T22:19:04.287Z,14.60
2018-12-13T22:21:33.077Z,14.70
2018-12-13T22:24:02.043Z,14.97
2018-12-13T22:26:31.210Z,14.17
2018-12-13T22:29:00.133Z,14.83
2018-12-13T22:31:29.094Z,14.60
2018-12-13T22:33:58.483Z,13.35
2018-12-13T22:36:27.537Z,15.23
2018-12-13T22:38:56.470Z,14.90
2018-12-13T22:41:26.454Z,13.60
2018-12-13T22:43:55.666Z,13.23
2018-12-13T22:46:24.693Z,12.63
2018-12-13T22:48:54.498Z,13.60
2018-12-13T22:51:23.662Z,13.33
2018-12-13T22:53:52.576Z,14.73
2018-12-13T22:56:21.551Z,13.77
2018-12-13T22:58:50.461Z,13.20
2018-12-13T23:01:19.566Z,13.60
2018-12-13T23:03:49.674Z,13.87
2018-12-13T23:06:18.530Z,14.57
2018-12-13T23:08:48.246Z,14.23
2018-12-13T23:11:17.498Z,13.90
2018-12-13T23:13:46.268Z,13.10
2018-12-13T23:16:16.003Z,13.83
2018-12-13T23:18:44.930Z,13.30
2018-12-13T23:21:13.847Z,13.65
2018-12-13T23:23:43.083Z,13.50
2018-12-13T23:26:11.847Z,12.13
2018-12-13T23:28:40.652Z,13.90
2018-12-13T23:31:09.598Z,13.97
2018-12-13T23:33:38.505Z,13.00
2018-12-13T23:36:07.951Z,14.23
2018-12-13T23:38:36.894Z,14.67
2018-12-13T23:41:05.684Z,14.73
2018-12-13T23:43:34.932Z,13.60
2018-12-13T23:46:03.935Z,12.97
2018-12-13T23:48:32.681Z,13.17
2018-12-13T23:51:01.482Z,13.77
2018-12-13T23:53:30.391Z,13.97
2018-12-13T23:55:59.603Z,14.20
2018-12-13T23:58:28.603Z,13.60
